Time,TemperatureF,DewpointF,PressureIn,WindDirection,WindDirectionDegrees,WindSpeedMPH,WindSpeedGustMPH,Humidity,HourlyPrecipIn,Conditions,Clouds,dailyrainin,SolarRadiationWatts/m^2,SoftwareType,DateUTC
2013-01-22 00:12:00,41.0,1.0,-100.00,NNE,29,0.0,7.0,18,0.00,,,0.00,0.000000,,2013-01-22 05:12:00,
2013-01-22 00:22:00,41.0,1.0,-100.00,NNE,29,0.0,7.0,18,0.00,,,0.00,0.000000,,2013-01-22 05:22:00,
2013-01-22 00:32:00,41.0,1.0,-100.00,NNE,29,0.0,7.0,18,0.00,,,0.00,0.000000,,2013-01-22 05:32:00,
2013-01-22 00:42:00,41.0,1.0,-100.00,NNE,29,0.0,7.0,18,0.00,,,0.00,0.000000,,2013-01-22 05:42:00,
2013-01-22 00:51:00,41.0,-2.0,-100.00,NE,44,0.0,4.0,16,0.00,,,0.00,0.000000,,2013-01-22 05:51:00,
2013-01-22 01:22:00,41.0,-2.0,-100.00,NE,44,0.0,4.0,16,0.00,,,0.00,0.000000,,2013-01-22 06:22:00,
2013-01-22 01:32:00,41.0,-2.0,-100.00,NE,44,0.0,4.0,16,0.00,,,0.00,0.000000,,2013-01-22 06:32:00,
2013-01-22 01:42:00,41.0,-2.0,-100.00,NE,44,0.0,4.0,16,0.00,,,0.00,0.000000,,2013-01-22 06:42:00,
2013-01-22 01:51:00,41.0,-3.0,-100.00,NE,41,0.0,6.0,15,0.00,,,0.00,0.000000,,2013-01-22 06:51:00,
2013-01-22 02:12:00,41.0,-3.0,-100.00,NE,41,0.0,6.0,15,0.00,,,0.00,0.000000,,2013-01-22 07:12:00,
2013-01-22 02:22:00,41.0,-3.0,-100.00,NE,41,0.0,6.0,15,0.00,,,0.00,0.000000,,2013-01-22 07:22:00,
2013-01-22 02:32:00,41.0,-3.0,-100.00,NE,41,0.0,6.0,15,0.00,,,0.00,0.000000,,2013-01-22 07:32:00,
2013-01-22 02:42:00,41.0,-3.0,-100.00,NE,41,0.0,6.0,15,0.00,,,0.00,0.000000,,2013-01-22 07:42:00,
2013-01-22 02:51:00,46.0,-6.0,-100.00,NE,35,1.0,6.0,11,0.00,,,0.00,0.000000,,2013-01-22 07:51:00,
2013-01-22 03:12:00,46.0,-6.0,-100.00,NE,35,1.0,6.0,11,0.00,,,0.00,0.000000,,2013-01-22 08:12:00,
2013-01-22 03:22:00,46.0,-6.0,-100.00,NE,35,1.0,6.0,11,0.00,,,0.00,0.000000,,2013-01-22 08:22:00,
2013-01-22 03:42:00,46.0,-6.0,-100.00,NE,35,1.0,6.0,11,0.00,,,0.00,0.000000,,2013-01-22 08:42:00,
2013-01-22 03:51:00,44.0,-5.0,-100.00,NNE,20,3.0,6.0,12,-99.99,,,0.00,0.000000,,2013-01-22 08:51:00,
2013-01-22 04:12:00,44.0,-5.0,-100.00,NNE,20,3.0,6.0,12,-99.99,,,0.00,0.000000,,2013-01-22 09:12:00,
2013-01-22 04:22:00,44.0,-5.0,-100.00,NNE,20,3.0,6.0,12,-99.99,,,0.00,0.000000,,2013-01-22 09:22:00,
2013-01-22 04:32:00,44.0,-5.0,-100.00,NNE,20,3.0,6.0,12,-99.99,,,0.00,0.000000,,2013-01-22 09:32:00,
2013-01-22 04:42:00,44.0,-5.0,-100.00,NNE,20,3.0,6.0,12,-99.99,,,0.00,0.000000,,2013-01-22 09:42:00,
2013-01-22 04:51:00,43.0,-8.0,-100.00,NNE,24,2.0,9.0,11,0.00,,,0.00,0.000000,,2013-01-22 09:51:00,
2013-01-22 05:22:00,43.0,-8.0,-100.00,NNE,24,2.0,9.0,11,0.00,,,0.00,0.000000,,2013-01-22 10:22:00,
2013-01-22 05:32:00,43.0,-8.0,-100.00,NNE,24,2.0,9.0,11,0.00,,,0.00,0.000000,,2013-01-22 10:32:00,
2013-01-22 05:42:00,43.0,-8.0,-100.00,NNE,24,2.0,9.0,11,0.00,,,0.00,0.000000,,2013-01-22 10:42:00,
2013-01-22 05:51:00,45.0,-8.0,-100.00,NNE,30,1.0,8.0,10,0.00,,,-99.99,0.000000,,2013-01-22 10:51:00,
2013-01-22 06:12:00,45.0,-8.0,-100.00,NNE,30,1.0,8.0,10,0.00,,,-99.99,0.000000,,2013-01-22 11:12:00,
2013-01-22 06:22:00,45.0,-8.0,-100.00,NNE,30,1.0,8.0,10,0.00,,,-99.99,0.000000,,2013-01-22 11:22:00,
2013-01-22 06:33:00,45.0,-8.0,-100.00,NNE,30,1.0,8.0,10,0.00,,,-99.99,0.000000,,2013-01-22 11:33:00,
2013-01-22 06:42:00,45.0,-8.0,-100.00,NNE,30,1.0,8.0,10,0.00,,,-99.99,0.000000,,2013-01-22 11:42:00,
2013-01-22 06:51:00,44.0,-5.0,-100.00,NE,55,1.0,9.0,12,0.00,,,0.00,0.000000,,2013-01-22 11:51:00,
2013-01-22 07:12:00,44.0,-5.0,-100.00,NE,55,1.0,9.0,12,0.00,,,0.00,0.000000,,2013-01-22 12:12:00,
2013-01-22 07:22:00,44.0,-5.0,-100.00,NE,55,1.0,9.0,12,0.00,,,0.00,0.000000,,2013-01-22 12:22:00,
2013-01-22 07:32:00,44.0,-5.0,-100.00,NE,55,1.0,9.0,12,0.00,,,0.00,0.000000,,2013-01-22 12:32:00,
2013-01-22 07:42:00,44.0,-5.0,-100.00,NE,55,1.0,9.0,12,0.00,,,0.00,0.000000,,2013-01-22 12:42:00,
2013-01-22 07:51:00,42.0,-5.0,-100.00,NE,54,4.0,12.0,13,0.00,,,0.00,0.000000,,2013-01-22 12:51:00,
2013-01-22 08:13:00,42.0,-5.0,-100.00,NE,54,4.0,12.0,13,0.00,,,0.00,0.000000,,2013-01-22 13:13:00,
2013-01-22 08:23:00,42.0,-5.0,-100.00,NE,54,4.0,12.0,13,0.00,,,0.00,0.000000,,2013-01-22 13:23:00,
2013-01-22 08:33:00,42.0,-5.0,-100.00,NE,54,4.0,12.0,13,0.00,,,0.00,0.000000,,2013-01-22 13:33:00,
2013-01-22 08:42:00,42.0,-5.0,-100.00,NE,54,4.0,12.0,13,0.00,,,0.00,0.000000,,2013-01-22 13:42:00,
2013-01-22 08:51:00,41.0,-3.0,-100.00,ENE,64,3.0,12.0,15,0.00,,,0.00,0.000000,,2013-01-22 13:51:00,
2013-01-22 09:12:00,41.0,-3.0,-100.00,ENE,64,3.0,12.0,15,0.00,,,0.00,0.000000,,2013-01-22 14:12:00,
2013-01-22 09:23:00,41.0,-3.0,-100.00,ENE,64,3.0,12.0,15,0.00,,,0.00,0.000000,,2013-01-22 14:23:00,
2013-01-22 09:33:00,41.0,-3.0,-100.00,ENE,64,3.0,12.0,15,0.00,,,0.00,0.000000,,2013-01-22 14:33:00,
2013-01-22 09:43:00,41.0,-3.0,-100.00,ENE,64,3.0,12.0,15,0.00,,,0.00,0.000000,,2013-01-22 14:43:00,
2013-01-22 09:51:00,42.0,-9.0,-100.00,ESE,119,0.0,7.0,11,0.00,,,0.00,0.000000,,2013-01-22 14:51:00,
2013-01-22 10:12:00,42.0,-9.0,-100.00,ESE,119,0.0,7.0,11,0.00,,,0.00,0.000000,,2013-01-22 15:12:00,
2013-01-22 10:23:00,42.0,-9.0,-100.00,ESE,119,0.0,7.0,11,0.00,,,0.00,0.000000,,2013-01-22 15:23:00,
2013-01-22 10:33:00,42.0,-9.0,-100.00,ESE,119,0.0,7.0,11,0.00,,,0.00,0.000000,,2013-01-22 15:33:00,
2013-01-22 10:43:00,42.0,-9.0,-100.00,ESE,119,0.0,7.0,11,0.00,,,0.00,0.000000,,2013-01-22 15:43:00,
2013-01-22 10:51:00,45.0,-3.0,-100.00,ENE,68,4.0,8.0,13,0.00,,,0.00,48.000000,,2013-01-22 15:51:00,
2013-01-22 11:13:00,45.0,-3.0,-100.00,ENE,68,4.0,8.0,13,0.00,,,0.00,48.000000,,2013-01-22 16:13:00,
2013-01-22 11:23:00,45.0,-3.0,-100.00,ENE,68,4.0,8.0,13,0.00,,,0.00,48.000000,,2013-01-22 16:23:00,
2013-01-22 11:33:00,45.0,-3.0,-100.00,ENE,68,4.0,8.0,13,0.00,,,0.00,48.000000,,2013-01-22 16:33:00,
2013-01-22 11:43:00,45.0,-3.0,-100.00,ENE,68,4.0,8.0,13,0.00,,,0.00,48.000000,,2013-01-22 16:43:00,
2013-01-22 11:51:00,50.0,-7.0,-100.00,ENE,77,3.0,8.0,9,-99.99,,,-99.99,330.000000,,2013-01-22 16:51:00,
2013-01-22 12:23:00,50.0,-7.0,-100.00,ENE,77,3.0,8.0,9,-99.99,,,-99.99,330.000000,,2013-01-22 17:23:00,
2013-01-22 12:33:00,50.0,-7.0,-100.00,ENE,77,3.0,8.0,9,-99.99,,,-99.99,330.000000,,2013-01-22 17:33:00,
2013-01-22 12:43:00,50.0,-7.0,-100.00,ENE,77,3.0,8.0,9,-99.99,,,-99.99,330.000000,,2013-01-22 17:43:00,
2013-01-22 12:51:00,50.0,-7.0,-100.00,ESE,111,3.0,13.0,9,0.00,,,0.00,542.000000,,2013-01-22 17:51:00,
2013-01-22 13:12:00,50.0,-7.0,-100.00,ESE,111,3.0,13.0,9,0.00,,,0.00,542.000000,,2013-01-22 18:12:00,
2013-01-22 13:23:00,50.0,-7.0,-100.00,ESE,111,3.0,13.0,9,0.00,,,0.00,542.000000,,2013-01-22 18:23:00,
2013-01-22 13:33:00,50.0,-7.0,-100.00,ESE,111,3.0,13.0,9,0.00,,,0.00,542.000000,,2013-01-22 18:33:00,
2013-01-22 13:42:00,50.0,-7.0,-100.00,ESE,111,3.0,13.0,9,0.00,,,0.00,542.000000,,2013-01-22 18:42:00,
2013-01-22 13:51:00,56.0,4.0,-100.00,East,101,1.0,9.0,12,0.00,,,0.00,710.000000,,2013-01-22 18:51:00,
2013-01-22 14:13:00,56.0,4.0,-100.00,East,101,1.0,9.0,12,0.00,,,0.00,710.000000,,2013-01-22 19:13:00,
2013-01-22 14:23:00,56.0,4.0,-100.00,East,101,1.0,9.0,12,0.00,,,0.00,710.000000,,2013-01-22 19:23:00,
2013-01-22 14:43:00,56.0,4.0,-100.00,East,101,1.0,9.0,12,0.00,,,0.00,710.000000,,2013-01-22 19:43:00,
2013-01-22 14:51:00,55.0,5.0,-100.00,SE,129,5.0,11.0,13,0.00,,,0.00,888.000000,,2013-01-22 19:51:00,
2013-01-22 15:12:00,55.0,5.0,-100.00,SE,129,5.0,11.0,13,0.00,,,0.00,888.000000,,2013-01-22 20:12:00,
2013-01-22 15:23:00,55.0,5.0,-100.00,SE,129,5.0,11.0,13,0.00,,,0.00,888.000000,,2013-01-22 20:23:00,
2013-01-22 15:42:00,55.0,5.0,-100.00,SE,129,5.0,11.0,13,0.00,,,0.00,888.000000,,2013-01-22 20:42:00,
2013-01-22 15:51:00,51.0,5.0,-100.00,SE,146,6.0,15.0,15,0.00,,,0.00,885.000000,,2013-01-22 20:51:00,
2013-01-22 16:13:00,51.0,5.0,-100.00,SE,146,6.0,15.0,15,0.00,,,0.00,885.000000,,2013-01-22 21:13:00,
2013-01-22 16:22:00,51.0,5.0,-100.00,SE,146,6.0,15.0,15,0.00,,,0.00,885.000000,,2013-01-22 21:22:00,
2013-01-22 16:33:00,51.0,5.0,-100.00,SE,146,6.0,15.0,15,0.00,,,0.00,885.000000,,2013-01-22 21:33:00,
2013-01-22 16:43:00,51.0,5.0,-100.00,SE,146,6.0,15.0,15,0.00,,,0.00,885.000000,,2013-01-22 21:43:00,
2013-01-22 16:51:00,52.0,-1.0,-100.00,SSE,157,5.0,12.0,11,0.00,,,0.00,867.000000,,2013-01-22 21:51:00,
2013-01-22 17:12:00,52.0,-1.0,-100.00,SSE,157,5.0,12.0,11,0.00,,,0.00,867.000000,,2013-01-22 22:12:00,
2013-01-22 17:22:00,52.0,-1.0,-100.00,SSE,157,5.0,12.0,11,0.00,,,0.00,867.000000,,2013-01-22 22:22:00,
2013-01-22 17:32:00,52.0,-1.0,-100.00,SSE,157,5.0,12.0,11,0.00,,,0.00,867.000000,,2013-01-22 22:32:00,
2013-01-22 17:43:00,52.0,-1.0,-100.00,SSE,157,5.0,12.0,11,0.00,,,0.00,867.000000,,2013-01-22 22:43:00,
2013-01-22 17:51:00,50.0,-1.0,-100.00,SSE,158,2.0,9.0,12,0.00,,,0.00,469.000000,,2013-01-22 22:51:00,
2013-01-22 18:12:00,50.0,-1.0,-100.00,SSE,158,2.0,9.0,12,0.00,,,0.00,469.000000,,2013-01-22 23:12:00,
2013-01-22 18:23:00,50.0,-1.0,-100.00,SSE,158,2.0,9.0,12,0.00,,,0.00,469.000000,,2013-01-22 23:23:00,
2013-01-22 18:33:00,50.0,-1.0,-100.00,SSE,158,2.0,9.0,12,0.00,,,0.00,469.000000,,2013-01-22 23:33:00,
2013-01-22 18:42:00,50.0,-1.0,-100.00,SSE,158,2.0,9.0,12,0.00,,,0.00,469.000000,,2013-01-22 23:42:00,
2013-01-22 18:51:00,45.0,-1.0,-100.00,SSE,154,5.0,8.0,14,0.00,,,0.00,245.000000,,2013-01-22 23:51:00,
2013-01-22 19:12:00,45.0,-1.0,-100.00,SSE,154,5.0,8.0,14,0.00,,,0.00,245.000000,,2013-01-23 00:12:00,
2013-01-22 19:22:00,45.0,-1.0,-100.00,SSE,154,5.0,8.0,14,0.00,,,0.00,245.000000,,2013-01-23 00:22:00,
2013-01-22 19:33:00,45.0,-1.0,-100.00,SSE,154,5.0,8.0,14,0.00,,,0.00,245.000000,,2013-01-23 00:33:00,
2013-01-22 19:42:00,45.0,-1.0,-100.00,SSE,154,5.0,8.0,14,0.00,,,0.00,245.000000,,2013-01-23 00:42:00,
2013-01-22 19:51:00,42.0,-5.0,-100.00,SSE,155,5.0,11.0,13,0.00,,,0.00,69.000000,,2013-01-23 00:51:00,
2013-01-22 20:22:00,42.0,-5.0,-100.00,SSE,155,5.0,11.0,13,0.00,,,0.00,69.000000,,2013-01-23 01:22:00,
2013-01-22 20:33:00,42.0,-5.0,-100.00,SSE,155,5.0,11.0,13,0.00,,,0.00,69.000000,,2013-01-23 01:33:00,
2013-01-22 20:42:00,42.0,-5.0,-100.00,SSE,155,5.0,11.0,13,0.00,,,0.00,69.000000,,2013-01-23 01:42:00,
2013-01-22 21:12:00,42.0,-11.0,-100.00,SSE,164,5.0,8.0,10,0.00,,,0.00,5.000000,,2013-01-23 02:12:00,
2013-01-22 21:22:00,42.0,-11.0,-100.00,SSE,164,5.0,8.0,10,0.00,,,0.00,5.000000,,2013-01-23 02:22:00,
2013-01-22 21:33:00,42.0,-11.0,-100.00,SSE,164,5.0,8.0,10,0.00,,,0.00,5.000000,,2013-01-23 02:33:00,
2013-01-22 22:12:00,43.0,-8.0,-100.00,SSE,147,5.0,11.0,11,0.00,,,0.00,0.000000,,2013-01-23 03:12:00,
2013-01-22 22:23:00,43.0,-8.0,-100.00,SSE,147,5.0,11.0,11,0.00,,,0.00,0.000000,,2013-01-23 03:23:00,
2013-01-22 22:32:00,43.0,-8.0,-100.00,SSE,147,5.0,11.0,11,0.00,,,0.00,0.000000,,2013-01-23 03:32:00,
2013-01-22 23:12:00,41.0,-9.0,-100.00,SSE,154,6.0,10.0,11,0.00,,,0.00,0.000000,,2013-01-23 04:12:00,
2013-01-22 23:22:00,41.0,-9.0,-100.00,SSE,154,6.0,10.0,11,0.00,,,0.00,0.000000,,2013-01-23 04:22:00,